• Join FlightAware (Why Join?)
  • Login
  • US Flag 
03:55PM EDT


 

Airport Tracker/Info


-or-


 

Live Flight TrackerFlight Track Log ✈ N444UA ✈ 08-May-2012 ✈ KMSY - KDEN

Flight Track Log - Related Links

Times and Time Zones

All times are in EDT time to prevent confusion due to time zone crossing. See the N444UA flight status page for this flight to view local times or setup timezone preferences in your user account.

Time Position Orientation Groundspeed Altitude Reporting Facility
EDT Latitude Longitude Course Direction KTS MPH feet Rate Location/Type
08:25AM 30.0008 -90.2483 North 158 182 500  Level Houston Center
08:30AM 30.2928 -90.2347 313° West 274 315 10,500 2,100 Climbing Houston Center
08:31AM 30.3606 -90.3181 312° West 303 349 12,300 2,160 Climbing Houston Center
08:32AM 30.4303 -90.4086 309° West 341 392 14,900 2,280 Climbing Houston Center
08:33AM 30.4958 -90.5042 309° West 370 426 16,900 1,860 Climbing Houston Center
08:34AM 30.5633 -90.6022 310° West 383 441 18,700 1,860 Climbing Houston Center
08:35AM 30.6331 -90.6981 310° West 389 448 20,700 1,620 Climbing Houston Center
08:36AM 30.7047 -90.7964 308° West 394 453 22,000 1,440 Climbing Houston Center
08:37AM 30.7742 -90.8997 308° West 394 453 23,600 1,320 Climbing Houston Center
08:38AM 30.8456 -91.0056 310° West 405 466 24,700 1,140 Climbing Houston Center
08:42AM 31.1622 -91.4525 311° West 438 504 29,300 1,020 Climbing Houston Center
08:47AM 31.5500 -91.9800 311° West 421 484 34,000 420 Climbing Houston Center
08:52AM 31.9561 -92.5386 310° West 430 495 34,000  Level Fort Worth Center
08:53AM 32.0314 -92.6450 310° West 430 495 34,000  Level Fort Worth Center
08:54AM 32.1083 -92.7536 311° West 430 495 34,000  Level Fort Worth Center
08:55AM 32.1875 -92.8625 309° West 430 495 34,000  Level Fort Worth Center
08:56AM 32.2625 -92.9717 311° West 430 495 34,000  Level Fort Worth Center
08:57AM 32.3258 -93.0572 311° West 430 495 34,000  Level Fort Worth Center
08:58AM 32.4158 -93.1808 309° West 425 489 34,000  Level Fort Worth Center
08:59AM 32.4903 -93.2906 310° West 425 489 34,000  Level Fort Worth Center
09:00AM 32.5517 -93.3764 310° West 425 489 34,000  Level Fort Worth Center
09:01AM 32.6433 -93.5081 309° West 430 495 34,000 360 Level Fort Worth Center
09:02AM 32.7197 -93.6183 310° West 430 495 34,800 1,140 Climbing Fort Worth Center
09:03AM 32.7917 -93.7192 309° West 424 488 36,300 1,080 Climbing Fort Worth Center
09:04AM 32.8614 -93.8225 309° West 413 475 37,000 480 Climbing Fort Worth Center
09:05AM 32.9311 -93.9236 309° West 407 468 37,400 420 Climbing Fort Worth Center
09:06AM 33.0139 -94.0467 309° West 407 468 38,000 300 Climbing Fort Worth Center
09:07AM 33.0703 -94.1289 309° West 407 468 38,000  Level Fort Worth Center
09:08AM 33.1483 -94.2425 309° West 407 468 38,000  Level Fort Worth Center
09:09AM 33.2197 -94.3469 309° West 407 468 38,000  Level Fort Worth Center
09:11AM 33.3647 -94.5581 309° West 407 468 38,000  Level Fort Worth Center
09:12AM 33.4381 -94.6653 309° West 407 468 38,000 -60 Level Fort Worth Center
09:13AM 33.5092 -94.7703 310° West 412 474 37,900 -60 Descending Fort Worth Center
09:14AM 33.5822 -94.8753 308° West 412 474 37,900  Level Fort Worth Center
09:15AM 33.6533 -94.9831 309° West 412 474 38,000  Climbing Fort Worth Center
09:16AM 33.7242 -95.0883 309° West 412 474 38,000  Level Fort Worth Center
09:17AM 33.7947 -95.1939 310° West 412 474 38,000 -60 Level Fort Worth Center
09:18AM 33.8656 -95.2972 307° West 412 474 37,900 -60 Descending Fort Worth Center
09:19AM 33.9319 -95.4033 310° West 412 474 37,900  Level Fort Worth Center
09:20AM 34.0044 -95.5069 309° West 412 474 38,000  Climbing Fort Worth Center
09:21AM 34.0814 -95.6206 306° West 411 473 38,000  Level Fort Worth Center
09:22AM 34.1475 -95.7322 310° West 406 467 38,000  Level Fort Worth Center
09:23AM 34.2178 -95.8336 307° West 406 467 38,000  Level Fort Worth Center
09:24AM 34.2772 -95.9306 309° West 406 467 38,000  Level Fort Worth Center
09:25AM 34.3472 -96.0350 310° West 406 467 38,000  Level Fort Worth Center
09:26AM 34.4172 -96.1372 308° West 401 461 38,000 -60 Level Fort Worth Center
09:27AM 34.4850 -96.2419 306° West 401 461 37,900  Descending Fort Worth Center
09:28AM 34.5486 -96.3469 310° West 396 456 38,000  Climbing Fort Worth Center
09:29AM 34.6183 -96.4497 307° West 396 456 38,000  Level Fort Worth Center
09:30AM 34.6775 -96.5450 308° West 396 456 38,000  Level Fort Worth Center
09:31AM 34.7594 -96.6706 308° West 391 450 38,000  Level Fort Worth Center
09:32AM 34.8269 -96.7761 308° West 391 450 38,000  Level Fort Worth Center
09:33AM 34.8942 -96.8794 309° West 391 450 38,000 -60 Level Fort Worth Center
09:34AM 34.9633 -96.9853 307° West 391 450 37,900  Descending Fort Worth Center
09:35AM 35.0303 -97.0942 307° West 391 450 38,000  Climbing Fort Worth Center
09:36AM 35.0889 -97.1903 308° West 391 450 38,000  Level Fort Worth Center
09:37AM 35.1558 -97.2967 310° West 391 450 38,000  Level Fort Worth Center
09:38AM 35.2311 -97.4058 304° West 403 464 38,000  Level Fort Worth Center
09:39AM 35.2978 -97.5281 308° West 403 464 38,000 -60 Level Fort Worth Center
09:40AM 35.3686 -97.6375 303° West 403 464 37,900  Descending Fort Worth Center
09:41AM 35.4267 -97.7472 304° West 403 464 38,000  Climbing Fort Worth Center
09:42AM 35.4867 -97.8547 303° West 395 455 38,000  Level Fort Worth Center
09:43AM 35.5447 -97.9647 303° West 395 455 38,000  Level Fort Worth Center
09:46AM 35.6733 -98.2133 302° West 377 434 38,000  Level Kansas City Center
09:47AM 35.7244 -98.3131 303° West 377 434 38,000  Level Kansas City Center
09:48AM 35.7814 -98.4208 302° West 377 434 38,000  Level Kansas City Center
09:49AM 35.8403 -98.5364 302° West 387 445 38,000  Level Kansas City Center
09:50AM 35.8969 -98.6494 303° West 387 445 38,000  Level Kansas City Center
09:51AM 35.9556 -98.7606 304° West 387 445 38,000  Level Kansas City Center
09:59AM 36.4408 -99.6753 308° West 415 478 38,000  Level Kansas City Center
10:00AM 36.5111 -99.7883 305° West 420 483 38,000  Level Kansas City Center
10:01AM 36.5789 -99.9069 307° West 420 483 38,000  Level Kansas City Center
10:02AM 36.6486 -100.0231 307° West 425 489 38,000  Level Kansas City Center
10:03AM 36.7203 -100.1397 307° West 425 489 38,000  Level Kansas City Center
10:04AM 36.7939 -100.2617 306° West 419 482 38,000  Level Kansas City Center
10:05AM 36.8631 -100.3786 307° West 419 482 38,000 -60 Level Kansas City Center
10:06AM 36.9247 -100.4819 307° West 419 482 37,900  Descending Kansas City Center
10:07AM 36.9942 -100.5967 306° West 419 482 38,000  Climbing Kansas City Center
10:08AM 37.0669 -100.7222 307° West 419 482 38,000  Level Kansas City Center
10:09AM 37.1339 -100.8344 307° West 414 476 38,000  Level Kansas City Center
10:10AM 37.1972 -100.9389 307° West 414 476 38,000 -60 Level Kansas City Center
10:11AM 37.2661 -101.0544 306° West 414 476 37,900  Descending Kansas City Center
10:12AM 37.3383 -101.1808 307° West 414 476 38,000  Climbing Kansas City Center
10:13AM 37.4050 -101.2939 305° West 414 476 38,000 -60 Level Kansas City Center
10:15AM 37.5192 -101.4986 307° West 419 482 37,900 -60 Descending Denver Center
10:16AM 37.5867 -101.6119 306° West 419 482 37,900  Level Denver Center
10:17AM 37.6611 -101.7433 307° West 419 482 38,000  Climbing Denver Center
10:18AM 37.7306 -101.8619 306° West 419 482 38,000  Level Denver Center
10:19AM 37.8000 -101.9811 305° West 419 482 38,000  Level Denver Center
10:20AM 37.8606 -102.0903 305° West 424 488 38,000  Level Denver Center
10:21AM 37.9344 -102.2228 306° West 424 488 38,000 -240 Level Denver Center
10:22AM 38.0033 -102.3425 305° West 424 488 37,600 -600 Descending Denver Center
10:23AM 38.0703 -102.4625 307° West 424 488 36,800 -900 Descending Denver Center
10:24AM 38.1322 -102.5672 305° West 416 479 35,800 -1,080 Descending Denver Center
10:25AM 38.2078 -102.7031 312° West 423 487 34,700 -1,020 Descending Denver Center
10:26AM 38.2864 -102.8153 309° West 423 487 33,800 -960 Descending Denver Center
10:27AM 38.3589 -102.9308 312° West 430 495 32,800 -1,860 Descending Denver Center
10:29AM 38.5158 -103.1564 308° West 435 501 28,300 -2,280 Descending Denver Center
10:30AM 38.5836 -103.2675 310° West 416 479 26,000 -2,100 Descending Denver Center
10:31AM 38.6531 -103.3733 311° West 396 456 24,100 -1,020 Descending Denver Center
10:32AM 38.7206 -103.4742 310° West 389 448 24,000 -60 Descending Denver Center
10:33AM 38.7833 -103.5700 314° West 389 448 24,000  Level Denver Center
10:34AM 38.8653 -103.6786 319° Northwest 389 448 24,000 -60 Level Denver Center
10:35AM 38.9467 -103.7689 320° Northwest 389 448 23,900 -1,080 Descending Denver Center
10:36AM 39.0194 -103.8489 318° Northwest 382 440 21,900 -1,920 Descending Denver Center
10:37AM 39.0944 -103.9369 317° Northwest 376 433 20,100 -2,100 Descending Denver Center
10:38AM 39.1758 -104.0358 320° Northwest 365 420 17,800 -1,620 Descending Denver Center
10:39AM 39.2483 -104.1136 319° Northwest 349 402 16,900 -780 Descending Denver Center
10:40AM 39.3061 -104.1789 315° West 321 369 16,300 -720 Descending Denver Center
10:41AM 39.3639 -104.2547 271° West 281 323 15,500 -960 Descending Denver Center
10:42AM 39.3656 -104.3408 264° West 250 288 14,400 -1,200 Descending Denver Center
10:43AM 39.3569 -104.4403 257° West 256 295 13,100 -720 Descending Denver Center
10:44AM 39.3417 -104.5239 258° West 261 300 13,000 -420 Descending Denver Center
10:45AM 39.3264 -104.6183 323° Northwest 255 293 12,300 -960 Descending Denver Center
10:46AM 39.3772 -104.6681 North 212 244 11,100 -660 Descending Denver Center
10:47AM 39.4503 -104.6661 359° North 242 278 11,000 -60 Descending Denver Center
10:48AM 39.5192 -104.6669 360° North 250 288 11,000 -540 Level Denver Center
10:49AM 39.6167 -104.6667 360° North 223 257 9,700 -1,020 Descending Denver TRACON
10:50AM 39.6667 -104.6667 360° North 198 228 8,600 -1,140 Descending Denver TRACON